createdAt,value
2022-09-17T00:00:26.604Z,21.60
2022-09-17T00:03:00.796Z,21.60
2022-09-17T00:05:38.681Z,21.70
2022-09-17T00:08:16.057Z,21.70
2022-09-17T00:10:50.523Z,21.70
2022-09-17T00:13:29.589Z,21.80
2022-09-17T00:16:04.736Z,21.70
2022-09-17T00:19:00.466Z,21.70
2022-09-17T00:21:47.511Z,21.80
2022-09-17T00:24:22.693Z,21.90
2022-09-17T00:26:56.405Z,21.70
2022-09-17T00:29:30.943Z,21.50
2022-09-17T00:32:05.293Z,21.60
2022-09-17T00:34:41.724Z,21.60
2022-09-17T00:37:18.270Z,21.60
2022-09-17T00:39:53.243Z,21.50
2022-09-17T00:42:28.087Z,21.60
2022-09-17T00:45:02.597Z,21.50
2022-09-17T00:47:39.621Z,21.40
2022-09-17T00:50:34.809Z,21.40
2022-09-17T00:53:23.350Z,21.40
2022-09-17T00:56:03.426Z,21.30
2022-09-17T00:58:41.456Z,21.30
2022-09-17T01:01:17.758Z,21.30
2022-09-17T01:03:54.289Z,21.20
2022-09-17T01:06:38.719Z,21.20
2022-09-17T01:09:30.137Z,21.20
2022-09-17T01:12:22.399Z,21.40
2022-09-17T01:15:10.552Z,21.30
2022-09-17T01:17:51.297Z,21.40
2022-09-17T01:21:12.755Z,21.30
2022-09-17T01:24:21.611Z,21.20
2022-09-17T01:27:46.182Z,21.30
2022-09-17T01:30:40.072Z,21.30
2022-09-17T01:33:24.698Z,21.40
2022-09-17T01:36:14.262Z,21.50
2022-09-17T01:38:55.692Z,21.50
2022-09-17T01:41:44.736Z,21.50
2022-09-17T01:44:24.416Z,21.60
2022-09-17T01:47:03.280Z,21.60
2022-09-17T01:49:43.241Z,21.70
2022-09-17T01:52:28.316Z,21.70
2022-09-17T01:55:11.277Z,21.70
2022-09-17T01:57:54.264Z,21.70
2022-09-17T02:00:31.036Z,21.60
2022-09-17T02:03:15.691Z,21.70
2022-09-17T02:05:56.581Z,21.70
2022-09-17T02:08:36.418Z,21.70
2022-09-17T02:11:15.922Z,21.60
2022-09-17T02:14:21.377Z,21.60
2022-09-17T02:17:46.565Z,21.50
2022-09-17T02:20:37.554Z,21.40
2022-09-17T02:23:17.276Z,21.40
2022-09-17T02:25:57.268Z,21.60
2022-09-17T02:28:38.237Z,21.60
2022-09-17T02:31:11.940Z,21.60
2022-09-17T02:33:50.712Z,21.70
2022-09-17T02:36:30.864Z,21.80
2022-09-17T02:39:18.578Z,21.80
2022-09-17T02:42:09.175Z,21.80
2022-09-17T02:44:55.062Z,21.70
2022-09-17T02:47:51.065Z,21.70
2022-09-17T02:50:38.981Z,21.70
2022-09-17T02:53:32.808Z,21.70
2022-09-17T02:56:20.953Z,21.70
2022-09-17T02:59:00.578Z,21.80
2022-09-17T03:01:48.505Z,21.70
2022-09-17T03:04:28.840Z,21.80
2022-09-17T03:07:04.751Z,21.80
2022-09-17T03:09:38.918Z,21.80
2022-09-17T03:12:16.969Z,21.80
2022-09-17T03:14:56.280Z,21.90
2022-09-17T03:17:30.663Z,21.90
2022-09-17T03:20:07.687Z,21.70
2022-09-17T03:22:42.454Z,21.70
2022-09-17T03:25:35.651Z,21.90
2022-09-17T03:28:12.691Z,21.80
2022-09-17T03:30:47.612Z,21.90
2022-09-17T03:33:22.303Z,21.90
2022-09-17T03:35:57.498Z,22.10
2022-09-17T03:38:40.164Z,22.20
2022-09-17T03:41:15.574Z,22.40
2022-09-17T03:43:51.161Z,22.50
2022-09-17T03:46:25.516Z,22.50
2022-09-17T03:49:02.245Z,22.70
2022-09-17T03:51:42.600Z,22.50
2022-09-17T03:54:23.561Z,22.80
2022-09-17T03:57:03.634Z,23.00
2022-09-17T03:59:47.905Z,23.00
2022-09-17T04:02:24.677Z,23.00
2022-09-17T04:05:11.951Z,22.70
2022-09-17T04:07:51.157Z,22.50
2022-09-17T04:10:27.821Z,22.50
2022-09-17T04:13:06.101Z,22.50
2022-09-17T04:15:51.735Z,22.30
2022-09-17T04:18:28.788Z,22.40
2022-09-17T04:21:03.839Z,22.60
2022-09-17T04:23:42.716Z,22.60
2022-09-17T04:26:20.627Z,22.60
2022-09-17T04:28:59.800Z,22.70
2022-09-17T04:31:42.163Z,22.80
2022-09-17T04:34:16.934Z,22.80
2022-09-17T04:36:52.986Z,22.70
2022-09-17T04:39:30.338Z,23.00
2022-09-17T04:42:05.716Z,23.10
2022-09-17T04:44:43.785Z,23.40
2022-09-17T04:47:25.367Z,23.60
2022-09-17T04:50:01.745Z,23.70
2022-09-17T04:52:35.780Z,23.50
2022-09-17T04:55:10.928Z,23.30
2022-09-17T04:57:52.857Z,23.30
2022-09-17T05:00:31.679Z,23.40
2022-09-17T05:03:15.261Z,23.50
2022-09-17T05:05:52.179Z,23.50
2022-09-17T05:08:26.923Z,23.40
2022-09-17T05:11:11.800Z,23.30
2022-09-17T05:13:49.322Z,23.40
2022-09-17T05:16:26.747Z,23.30
2022-09-17T05:19:03.784Z,23.30
2022-09-17T05:21:43.572Z,23.30
2022-09-17T05:24:19.952Z,23.20
2022-09-17T05:26:55.295Z,23.10
2022-09-17T05:29:29.945Z,23.00
2022-09-17T05:32:04.764Z,23.00
2022-09-17T05:34:51.653Z,23.20
2022-09-17T05:37:26.368Z,23.30
2022-09-17T05:40:03.523Z,23.30
2022-09-17T05:42:39.341Z,23.60
2022-09-17T05:45:19.092Z,23.70
2022-09-17T05:48:01.286Z,23.80
2022-09-17T05:50:39.546Z,23.90
2022-09-17T05:53:16.807Z,23.60
2022-09-17T05:55:58.581Z,23.70
2022-09-17T05:58:33.852Z,23.20
2022-09-17T06:01:07.955Z,23.00
2022-09-17T06:03:46.272Z,22.90
2022-09-17T06:06:22.787Z,23.00
2022-09-17T06:09:01.485Z,22.80
2022-09-17T06:11:40.218Z,22.90
2022-09-17T06:14:15.922Z,23.20
2022-09-17T06:16:52.287Z,23.30
2022-09-17T06:19:26.752Z,23.60
2022-09-17T06:22:10.878Z,23.70
2022-09-17T06:24:47.677Z,23.80
2022-09-17T06:27:37.444Z,23.90
2022-09-17T06:30:11.763Z,23.70
2022-09-17T06:32:49.302Z,23.60
2022-09-17T06:35:42.155Z,23.60
2022-09-17T06:38:20.021Z,23.50
2022-09-17T06:40:59.272Z,23.30
2022-09-17T06:43:34.051Z,23.00
2022-09-17T06:46:12.370Z,23.00
2022-09-17T06:48:59.207Z,23.10
2022-09-17T06:51:39.557Z,23.20
2022-09-17T06:54:20.987Z,23.00
2022-09-17T06:56:59.020Z,23.00
2022-09-17T06:59:34.718Z,23.10
2022-09-17T07:02:10.017Z,23.00
2022-09-17T07:04:56.629Z,23.00
2022-09-17T07:07:31.002Z,23.00
2022-09-17T07:10:10.739Z,23.00
2022-09-17T07:12:50.043Z,23.20
2022-09-17T07:15:26.445Z,23.10
2022-09-17T07:18:03.803Z,22.70
2022-09-17T07:20:48.300Z,22.70
2022-09-17T07:23:25.254Z,22.80
2022-09-17T07:26:06.381Z,22.90
2022-09-17T07:28:47.225Z,23.00
2022-09-17T07:31:25.705Z,23.10
2022-09-17T07:34:04.214Z,22.90
2022-09-17T07:36:40.674Z,23.00
2022-09-17T07:39:16.535Z,23.00
2022-09-17T07:41:56.265Z,23.00
2022-09-17T07:44:33.927Z,23.00
2022-09-17T07:47:09.261Z,23.00
2022-09-17T07:49:46.969Z,23.10
2022-09-17T07:52:30.927Z,23.20
2022-09-17T07:55:05.463Z,23.30
2022-09-17T07:57:56.604Z,23.20
2022-09-17T08:00:31.254Z,23.10
2022-09-17T08:03:12.709Z,23.10
2022-09-17T08:05:49.534Z,23.20
2022-09-17T08:08:26.692Z,23.20
2022-09-17T08:11:05.812Z,23.20
2022-09-17T08:13:45.834Z,23.00
2022-09-17T08:16:23.134Z,23.10
2022-09-17T08:19:08.469Z,23.20
2022-09-17T08:21:43.986Z,23.20
2022-09-17T08:24:20.031Z,23.30
2022-09-17T08:27:00.024Z,23.20
2022-09-17T08:29:40.852Z,23.10
2022-09-17T08:32:19.260Z,23.10
2022-09-17T08:34:56.808Z,22.80
2022-09-17T08:37:37.934Z,23.00
2022-09-17T08:40:14.094Z,23.00
2022-09-17T08:43:00.807Z,23.00
2022-09-17T08:45:39.264Z,22.90
2022-09-17T08:48:23.096Z,22.90
2022-09-17T08:51:03.289Z,23.10
2022-09-17T08:53:57.584Z,23.00
2022-09-17T08:56:48.944Z,23.10
2022-09-17T08:59:37.822Z,23.10
2022-09-17T09:02:36.765Z,23.00
2022-09-17T09:05:17.395Z,22.90
2022-09-17T09:07:57.211Z,22.90
2022-09-17T09:10:35.224Z,22.90
2022-09-17T09:13:10.569Z,22.90
2022-09-17T09:15:49.545Z,23.00
2022-09-17T09:18:29.101Z,23.00
2022-09-17T09:21:16.630Z,22.90
2022-09-17T09:24:00.105Z,22.80
2022-09-17T09:26:56.498Z,22.80
2022-09-17T09:29:58.287Z,22.80
2022-09-17T09:32:56.406Z,22.80
2022-09-17T09:35:34.497Z,22.70
2022-09-17T09:38:26.123Z,22.60
2022-09-17T09:41:09.419Z,22.60
2022-09-17T09:44:05.032Z,22.60
2022-09-17T09:46:59.324Z,22.70
2022-09-17T09:49:55.425Z,22.70
2022-09-17T09:52:44.484Z,22.70
2022-09-17T09:55:44.822Z,22.70
2022-09-17T09:58:38.553Z,22.60
2022-09-17T10:01:22.146Z,22.60
2022-09-17T10:04:00.097Z,22.50
2022-09-17T10:06:43.018Z,22.50
2022-09-17T10:09:23.464Z,22.60
2022-09-17T10:12:12.423Z,22.60
2022-09-17T10:15:02.401Z,22.50
2022-09-17T10:17:37.275Z,22.50
2022-09-17T10:20:23.233Z,22.50
2022-09-17T10:22:59.769Z,22.50
2022-09-17T10:25:38.650Z,22.40
2022-09-17T10:28:34.975Z,22.50
2022-09-17T10:31:13.499Z,22.40
2022-09-17T10:34:01.418Z,22.50
2022-09-17T10:36:46.383Z,22.50
2022-09-17T10:39:37.987Z,22.40
2022-09-17T10:42:19.736Z,22.40
2022-09-17T10:44:59.389Z,22.50
2022-09-17T10:47:38.401Z,22.40
2022-09-17T10:50:32.741Z,22.40
2022-09-17T10:53:10.280Z,22.40
2022-09-17T10:55:53.621Z,22.40
2022-09-17T10:58:46.461Z,22.30
2022-09-17T11:01:39.673Z,22.30
2022-09-17T11:04:27.384Z,22.30
2022-09-17T11:07:33.252Z,22.20
2022-09-17T11:10:20.343Z,22.30
2022-09-17T11:13:19.136Z,22.30
2022-09-17T11:16:09.665Z,22.30
2022-09-17T11:18:49.790Z,22.30
2022-09-17T11:21:35.967Z,22.30
2022-09-17T11:24:51.691Z,22.30
2022-09-17T11:27:51.081Z,22.30
2022-09-17T11:30:31.198Z,22.30
2022-09-17T11:33:33.226Z,22.40
2022-09-17T11:36:15.849Z,22.40
2022-09-17T11:38:53.452Z,22.40
2022-09-17T11:41:37.877Z,22.40
2022-09-17T11:44:22.212Z,22.30
2022-09-17T11:47:07.593Z,22.30
2022-09-17T11:49:53.794Z,22.20
2022-09-17T11:52:38.064Z,22.20
2022-09-17T11:55:27.452Z,22.20
2022-09-17T11:58:11.665Z,22.20
2022-09-17T12:00:55.525Z,22.20
2022-09-17T12:03:36.876Z,22.20
2022-09-17T12:06:20.749Z,22.20
2022-09-17T12:09:05.014Z,22.20
2022-09-17T12:11:51.151Z,22.20
2022-09-17T12:14:30.235Z,22.20
2022-09-17T12:17:15.816Z,22.10
2022-09-17T12:19:57.162Z,22.20
2022-09-17T12:22:43.233Z,22.10
2022-09-17T12:25:32.894Z,22.20
2022-09-17T12:28:21.491Z,22.30
2022-09-17T12:31:00.409Z,22.30
2022-09-17T12:33:43.144Z,22.30
2022-09-17T12:36:39.477Z,22.30
2022-09-17T12:39:49.764Z,22.30
2022-09-17T12:42:56.282Z,22.30
2022-09-17T12:45:52.010Z,22.30
2022-09-17T12:48:57.865Z,22.20
2022-09-17T12:51:58.128Z,22.20
2022-09-17T12:55:10.723Z,22.30
2022-09-17T12:57:56.878Z,22.20
2022-09-17T13:00:33.527Z,22.20
2022-09-17T13:03:12.831Z,22.30
2022-09-17T13:06:13.798Z,22.30
2022-09-17T13:09:31.713Z,22.20
2022-09-17T13:12:32.473Z,22.20
2022-09-17T13:15:57.853Z,22.20
2022-09-17T13:19:05.709Z,22.30
2022-09-17T13:21:51.345Z,22.20
2022-09-17T13:24:31.406Z,22.20
2022-09-17T13:27:15.369Z,22.20
2022-09-17T13:30:31.086Z,22.20
2022-09-17T13:33:16.443Z,22.10
2022-09-17T13:36:02.524Z,22.10
2022-09-17T13:38:52.382Z,22.20
2022-09-17T13:41:32.948Z,22.20
2022-09-17T13:44:10.801Z,22.20
2022-09-17T13:47:12.722Z,22.10
2022-09-17T13:49:53.891Z,22.20
2022-09-17T13:52:44.855Z,22.20
2022-09-17T13:55:43.096Z,22.20
2022-09-17T13:58:31.418Z,22.30
2022-09-17T14:01:15.867Z,22.30
2022-09-17T14:04:39.517Z,22.40
2022-09-17T14:07:50.716Z,22.40
2022-09-17T14:10:41.176Z,22.40
2022-09-17T14:14:01.010Z,22.40
2022-09-17T14:16:54.214Z,22.40
2022-09-17T14:20:05.152Z,22.30
2022-09-17T14:22:39.576Z,22.30
2022-09-17T14:25:23.902Z,22.40
2022-09-17T14:28:04.714Z,22.40
2022-09-17T14:30:39.466Z,22.40
2022-09-17T14:33:24.494Z,22.40
2022-09-17T14:36:06.863Z,22.40
2022-09-17T14:38:56.649Z,22.50
2022-09-17T14:41:52.997Z,22.40
2022-09-17T14:44:34.846Z,22.40
2022-09-17T14:50:34.786Z,22.40
2022-09-17T14:53:39.351Z,22.50
2022-09-17T14:56:19.224Z,22.40
2022-09-17T14:59:00.856Z,22.50
2022-09-17T15:01:40.538Z,22.50
2022-09-17T15:04:44.628Z,22.50
2022-09-17T15:07:22.262Z,22.50
2022-09-17T15:10:12.840Z,22.50
2022-09-17T15:13:07.866Z,22.50
2022-09-17T15:15:56.622Z,22.50
2022-09-17T15:18:43.760Z,22.50
2022-09-17T15:21:29.626Z,22.50
2022-09-17T15:24:25.570Z,22.50
2022-09-17T15:27:30.745Z,22.50
2022-09-17T15:30:16.693Z,22.50
2022-09-17T15:32:59.932Z,22.50
2022-09-17T15:35:39.742Z,22.50
2022-09-17T15:38:36.253Z,22.50
2022-09-17T15:41:38.499Z,22.50
2022-09-17T15:44:40.914Z,22.50
2022-09-17T15:48:02.126Z,22.50
2022-09-17T15:50:57.018Z,22.50
2022-09-17T15:53:34.188Z,22.60
2022-09-17T15:56:19.573Z,22.60
2022-09-17T15:59:06.817Z,22.60
2022-09-17T16:01:59.305Z,22.60
2022-09-17T16:04:40.071Z,22.60
2022-09-17T16:07:39.064Z,22.60
2022-09-17T16:10:19.153Z,22.60
2022-09-17T16:13:03.178Z,22.60
2022-09-17T16:15:40.045Z,22.60
2022-09-17T16:18:25.494Z,22.60
2022-09-17T16:21:05.939Z,22.70
2022-09-17T16:23:48.643Z,22.70
2022-09-17T16:26:25.558Z,22.70
2022-09-17T16:29:20.692Z,22.60
2022-09-17T16:32:02.199Z,22.60
2022-09-17T16:34:42.162Z,22.60
2022-09-17T16:37:25.063Z,22.60
2022-09-17T16:40:04.939Z,22.60
2022-09-17T16:42:44.089Z,22.60
2022-09-17T16:45:18.715Z,22.50
2022-09-17T16:50:49.772Z,22.60
2022-09-17T16:53:28.174Z,22.60
2022-09-17T16:56:05.878Z,22.60
2022-09-17T16:58:45.887Z,22.60
2022-09-17T17:01:25.000Z,22.60
2022-09-17T17:04:01.234Z,22.60
2022-09-17T17:06:38.389Z,22.60
2022-09-17T17:09:13.971Z,22.60
2022-09-17T17:12:01.736Z,22.60
2022-09-17T17:14:38.966Z,22.60
2022-09-17T17:17:26.074Z,22.60
2022-09-17T17:20:01.078Z,22.60
2022-09-17T17:22:41.143Z,22.60
2022-09-17T17:25:19.433Z,22.60
2022-09-17T17:27:55.553Z,22.60
2022-09-17T17:30:35.005Z,22.50
2022-09-17T17:33:09.832Z,22.40
2022-09-17T17:35:49.962Z,22.40
2022-09-17T17:38:28.362Z,22.30
2022-09-17T17:41:10.229Z,22.30
2022-09-17T17:43:45.480Z,22.30
2022-09-17T17:46:32.211Z,22.20
2022-09-17T17:49:10.264Z,22.10
2022-09-17T17:51:44.150Z,22.10
2022-09-17T17:54:20.341Z,22.10
2022-09-17T17:56:59.244Z,22.10
2022-09-17T17:59:34.337Z,22.10
2022-09-17T18:02:09.380Z,22.10
2022-09-17T18:04:44.239Z,22.00
2022-09-17T18:07:19.968Z,22.00
2022-09-17T18:10:01.460Z,22.00
2022-09-17T18:12:36.399Z,22.10
2022-09-17T18:15:12.643Z,22.10
2022-09-17T18:17:49.299Z,22.00
2022-09-17T18:20:23.997Z,22.10
2022-09-17T18:22:59.687Z,22.10
2022-09-17T18:25:38.409Z,22.20
2022-09-17T18:28:29.703Z,22.10
2022-09-17T18:31:17.713Z,22.20
2022-09-17T18:34:02.681Z,22.20
2022-09-17T18:36:39.052Z,22.10
2022-09-17T18:39:57.425Z,22.10
2022-09-17T18:42:24.819Z,22.10
2022-09-17T18:45:04.536Z,22.00
2022-09-17T18:47:43.722Z,22.10
2022-09-17T18:50:20.055Z,22.10
2022-09-17T18:53:02.194Z,22.20
2022-09-17T18:55:40.607Z,22.10
2022-09-17T18:58:22.232Z,22.10
2022-09-17T19:00:56.847Z,22.10
2022-09-17T19:03:38.093Z,22.10
2022-09-17T19:06:22.687Z,22.10
2022-09-17T19:08:58.290Z,22.10
2022-09-17T19:11:32.897Z,22.10
2022-09-17T19:14:10.457Z,22.10
2022-09-17T19:16:47.379Z,22.10
2022-09-17T19:19:24.361Z,22.00
2022-09-17T19:21:59.378Z,22.10
2022-09-17T19:24:34.814Z,22.10
2022-09-17T19:27:12.074Z,22.10
2022-09-17T19:29:52.991Z,22.10
2022-09-17T19:32:26.808Z,22.10
2022-09-17T19:35:02.268Z,22.10
2022-09-17T19:37:49.300Z,22.10
2022-09-17T19:40:29.532Z,22.00
2022-09-17T19:43:05.115Z,22.00
2022-09-17T19:45:43.276Z,22.00
2022-09-17T19:48:20.982Z,22.00
2022-09-17T19:51:00.547Z,22.00
2022-09-17T19:53:36.535Z,22.10
2022-09-17T19:56:11.676Z,22.00
2022-09-17T19:58:46.409Z,22.00
2022-09-17T20:01:30.501Z,22.00
2022-09-17T20:04:05.447Z,21.90
2022-09-17T20:06:40.464Z,22.00
2022-09-17T20:09:16.169Z,21.90
2022-09-17T20:11:51.552Z,21.90
2022-09-17T20:14:26.597Z,22.00
2022-09-17T20:17:03.064Z,21.90
2022-09-17T20:19:38.285Z,22.00
2022-09-17T20:22:13.031Z,22.00
2022-09-17T20:24:51.065Z,22.00
2022-09-17T20:27:27.378Z,21.90
2022-09-17T20:30:02.104Z,22.00
2022-09-17T20:32:38.576Z,21.90
2022-09-17T20:35:13.255Z,22.00
2022-09-17T20:38:57.498Z,22.00
2022-09-17T20:40:43.703Z,21.90
2022-09-17T20:43:18.146Z,21.90
2022-09-17T20:46:00.567Z,21.90
2022-09-17T20:48:37.625Z,21.80
2022-09-17T20:51:14.712Z,21.80
2022-09-17T20:53:49.903Z,21.70
2022-09-17T20:56:27.495Z,21.70
2022-09-17T20:59:09.510Z,21.70
2022-09-17T21:01:46.098Z,21.60
2022-09-17T21:04:28.498Z,21.60
2022-09-17T21:07:07.175Z,21.60
2022-09-17T21:09:43.195Z,21.50
2022-09-17T21:12:17.741Z,21.50
2022-09-17T21:14:52.360Z,21.50
2022-09-17T21:17:28.016Z,21.50
2022-09-17T21:20:04.133Z,21.40
2022-09-17T21:22:38.547Z,21.40
2022-09-17T21:25:13.273Z,21.40
2022-09-17T21:27:48.735Z,21.50
2022-09-17T21:30:24.344Z,21.50
2022-09-17T21:33:01.963Z,21.60
2022-09-17T21:35:44.657Z,21.50
2022-09-17T21:38:20.704Z,21.50
2022-09-17T21:41:01.124Z,21.60
2022-09-17T21:43:36.857Z,21.60
2022-09-17T21:46:12.833Z,21.60
2022-09-17T21:48:49.666Z,21.60
2022-09-17T21:51:27.289Z,21.70
2022-09-17T21:54:01.877Z,21.60
2022-09-17T21:56:36.498Z,21.70
2022-09-17T21:59:12.751Z,21.70
2022-09-17T22:01:48.648Z,21.60
2022-09-17T22:04:24.132Z,21.60
2022-09-17T22:07:00.550Z,21.70
2022-09-17T22:09:34.327Z,21.60
2022-09-17T22:12:08.863Z,21.60
2022-09-17T22:14:42.598Z,21.60
2022-09-17T22:17:17.492Z,21.60
2022-09-17T22:19:51.698Z,21.60
2022-09-17T22:22:28.029Z,21.60
2022-09-17T22:25:02.445Z,21.60
2022-09-17T22:27:37.132Z,21.60
2022-09-17T22:30:11.997Z,21.60
2022-09-17T22:32:46.139Z,21.70
2022-09-17T22:35:21.213Z,21.70
2022-09-17T22:37:57.532Z,21.60
2022-09-17T22:40:31.777Z,21.70
2022-09-17T22:43:07.511Z,21.60
2022-09-17T22:45:41.716Z,21.60
2022-09-17T22:48:16.874Z,21.60
2022-09-17T22:50:55.272Z,21.70
2022-09-17T22:53:31.865Z,21.60
2022-09-17T22:56:05.829Z,21.60
2022-09-17T22:58:39.845Z,21.60
2022-09-17T23:01:17.129Z,21.60
2022-09-17T23:03:52.232Z,21.70
2022-09-17T23:06:28.383Z,21.80
2022-09-17T23:09:05.120Z,21.80
2022-09-17T23:11:41.918Z,21.70
2022-09-17T23:14:18.133Z,21.50
2022-09-17T23:16:53.578Z,21.50
2022-09-17T23:19:28.747Z,21.60
2022-09-17T23:22:02.617Z,21.60
2022-09-17T23:24:40.646Z,21.60
2022-09-17T23:27:16.526Z,21.70
2022-09-17T23:29:50.518Z,21.80
2022-09-17T23:32:24.913Z,21.80
2022-09-17T23:34:58.644Z,21.80
2022-09-17T23:37:34.246Z,21.80
2022-09-17T23:40:11.061Z,22.00
2022-09-17T23:42:45.531Z,21.90
2022-09-17T23:45:19.514Z,22.00
2022-09-17T23:47:53.881Z,22.00
2022-09-17T23:50:30.605Z,22.00
2022-09-17T23:53:05.086Z,21.90
2022-09-17T23:55:49.304Z,21.90
2022-09-17T23:58:23.412Z,22.00
